Seamaster — ZMV7638 — position and weather

sailwx.info

Track history (hours):
 
Tides and Currents Weather Stations Pressure Air Temp Water Temp Dewpoint Dewpoint Depression Visibility Wind Speed Wind Dir Waves Ship Positions

Seamaster

Last reported at 2015-Jun-30 09:15 UTC. Time now 2015-Jun-30 12:39 UTC.
Position S 36°52' E 174°54'.

Length 44 m.

Type: Passenger vessel. MMSI: 512001027.

Date/timePositionNaut miles runAvg speedWind from/ knotsBaromVisibWave heightAir tempDewpointWater temp
2015-Jun-30 09:15S 36°52' E 174°54'5 4.5
2015-Jun-30 08:10S 36°47' E 174°54'5 1.7
2015-Jun-30 05:25S 36°52' E 174°54'1 0.4
2015-Jun-30 03:13S 36°51' E 174°54'1 1.8
2015-Jun-30 02:32S 36°52' E 174°54'2 0.5
2015-Jun-29 23:18S 36°51' E 174°54'2 0.6
2015-Jun-29 20:29S 36°52' E 174°54'2 1.2
2015-Jun-29 18:28S 36°50' E 174°56'3 2.0
2015-Jun-29 17:05S 36°53' E 174°54'1 0.1
2015-Jun-29 05:26S 36°52' E 174°54'3 0.4
2015-Jun-28 21:33S 36°50' E 174°57'3 2.7
2015-Jun-28 20:24S 36°52' E 174°54'3 1.4
2015-Jun-28 18:32S 36°50' E 174°56'1 0.1
2015-Jun-28 06:29S 36°50' E 174°55'4 4.4
2015-Jun-28 05:32S 36°49' E 175°00'6 1.8
2015-Jun-28 02:05S 36°52' E 174°54'1 2.6
2015-Jun-28 01:33S 36°51' E 174°54'2 1.1
2015-Jun-28 00:05S 36°53' E 174°54'0 0.0
2015-Jun-27 23:26S 36°53' E 174°54'0 0.0
2015-Jun-27 22:20S 36°53' E 174°54'0 0.0
2015-Jun-27 21:20S 36°53' E 174°54'0 0.0
2015-Jun-27 20:32S 36°53' E 174°54'1 0.0
2015-Jun-26 05:28S 36°52' E 174°54'0 0.1
2015-Jun-26 00:19S 36°53' E 174°54'3 1.1
2015-Jun-25 21:32S 36°49' E 174°54'3 3.2
2015-Jun-25 20:30S 36°53' E 174°54'3 1.6
2015-Jun-25 18:33S 36°50' E 174°56'3 0.2
2015-Jun-25 05:29S 36°53' E 174°54'7 7.3
2015-Jun-25 04:33S 36°49' E 175°01'4 3.6
2015-Jun-25 03:32S 36°50' E 174°57'3 2.6
2015-Jun-25 02:24S 36°52' E 174°54'1 0.3
2015-Jun-25 00:12S 36°51' E 174°54'1 0.6
2015-Jun-24 23:12S 36°52' E 174°54'2 1.2
2015-Jun-24 21:28S 36°50' E 174°56'2 2.3
2015-Jun-24 20:25S 36°52' E 174°54'3 1.4
2015-Jun-24 18:31S 36°50' E 174°56'3 2.8
2015-Jun-24 17:28S 36°53' E 174°54'0 0.0
2015-Jun-23 20:29S 36°53' E 174°54'5 3.0
2015-Jun-23 18:50S 36°50' E 174°59'5 0.2
2015-Jun-22 18:21S 36°51' E 174°54'2 1.8
2015-Jun-22 17:14S 36°53' E 174°54'1 0.1
2015-Jun-22 05:27S 36°52' E 174°54'1 0.6
2015-Jun-22 03:14S 36°51' E 174°54'1 1.3
2015-Jun-22 02:27S 36°52' E 174°54'0 0.1
2015-Jun-21 23:22S 36°52' E 174°54'0 0.2
2015-Jun-21 20:29S 36°52' E 174°54'1 0.7
2015-Jun-21 18:21S 36°51' E 174°53'2 2.0
2015-Jun-21 17:27S 36°53' E 174°54'0 0.0
2015-Jun-21 05:05S 36°53' E 174°54'0 0.0
2015-Jun-21 04:29S 36°53' E 174°54'0 0.0
2015-Jun-21 03:26S 36°53' E 174°54'0 0.0
2015-Jun-21 02:29S 36°53' E 174°54'0 0.0
2015-Jun-21 01:29S 36°53' E 174°54'0 0.0
2015-Jun-21 00:23S 36°53' E 174°54'0 0.0
2015-Jun-20 23:29S 36°53' E 174°54'0 0.0
2015-Jun-20 22:29S 36°53' E 174°54'0 0.0
2015-Jun-20 21:29S 36°53' E 174°54'0 0.0
2015-Jun-20 20:32S 36°53' E 174°54'0 0.0
2015-Jun-20 19:06S 36°53' E 174°54'0 0.0
2015-Jun-20 18:24S 36°53' E 174°54'  
Track history (hours):
 
Tides and Currents Weather Stations Pressure Air Temp Water Temp Dewpoint Dewpoint Depression Visibility Wind Speed Wind Dir Waves Ship Positions

Seamaster

Last reported at 2015-Jun-30 09:15 UTC. Time now 2015-Jun-30 12:39 UTC.
Position S 36°52' E 174°54'.

Length 44 m.

Type: Passenger vessel. MMSI: 512001027.

Date/timePositionNaut miles runAvg speedWind from/ knotsBaromVisibWave heightAir tempDewpointWater temp
2015-Jun-30 09:15S 36°52' E 174°54'5 4.5
2015-Jun-30 08:10S 36°47' E 174°54'5 1.7
2015-Jun-30 05:25S 36°52' E 174°54'1 0.4
2015-Jun-30 03:13S 36°51' E 174°54'1 1.8
2015-Jun-30 02:32S 36°52' E 174°54'2 0.5
2015-Jun-29 23:18S 36°51' E 174°54'2 0.6
2015-Jun-29 20:29S 36°52' E 174°54'2 1.2
2015-Jun-29 18:28S 36°50' E 174°56'3 2.0
2015-Jun-29 17:05S 36°53' E 174°54'1 0.1
2015-Jun-29 05:26S 36°52' E 174°54'3 0.4
2015-Jun-28 21:33S 36°50' E 174°57'3 2.7
2015-Jun-28 20:24S 36°52' E 174°54'3 1.4
2015-Jun-28 18:32S 36°50' E 174°56'1 0.1
2015-Jun-28 06:29S 36°50' E 174°55'4 4.4
2015-Jun-28 05:32S 36°49' E 175°00'6 1.8
2015-Jun-28 02:05S 36°52' E 174°54'1 2.6
2015-Jun-28 01:33S 36°51' E 174°54'2 1.1
2015-Jun-28 00:05S 36°53' E 174°54'0 0.0
2015-Jun-27 23:26S 36°53' E 174°54'0 0.0
2015-Jun-27 22:20S 36°53' E 174°54'0 0.0
2015-Jun-27 21:20S 36°53' E 174°54'0 0.0
2015-Jun-27 20:32S 36°53' E 174°54'1 0.0
2015-Jun-26 05:28S 36°52' E 174°54'0 0.1
2015-Jun-26 00:19S 36°53' E 174°54'3 1.1
2015-Jun-25 21:32S 36°49' E 174°54'3 3.2
2015-Jun-25 20:30S 36°53' E 174°54'3 1.6
2015-Jun-25 18:33S 36°50' E 174°56'3 0.2
2015-Jun-25 05:29S 36°53' E 174°54'7 7.3
2015-Jun-25 04:33S 36°49' E 175°01'4 3.6
2015-Jun-25 03:32S 36°50' E 174°57'3 2.6
2015-Jun-25 02:24S 36°52' E 174°54'1 0.3
2015-Jun-25 00:12S 36°51' E 174°54'1 0.6
2015-Jun-24 23:12S 36°52' E 174°54'2 1.2
2015-Jun-24 21:28S 36°50' E 174°56'2 2.3
2015-Jun-24 20:25S 36°52' E 174°54'3 1.4
2015-Jun-24 18:31S 36°50' E 174°56'3 2.8
2015-Jun-24 17:28S 36°53' E 174°54'0 0.0
2015-Jun-23 20:29S 36°53' E 174°54'5 3.0
2015-Jun-23 18:50S 36°50' E 174°59'5 0.2
2015-Jun-22 18:21S 36°51' E 174°54'2 1.8
2015-Jun-22 17:14S 36°53' E 174°54'1 0.1
2015-Jun-22 05:27S 36°52' E 174°54'1 0.6
2015-Jun-22 03:14S 36°51' E 174°54'1 1.3
2015-Jun-22 02:27S 36°52' E 174°54'0 0.1
2015-Jun-21 23:22S 36°52' E 174°54'0 0.2
2015-Jun-21 20:29S 36°52' E 174°54'1 0.7
2015-Jun-21 18:21S 36°51' E 174°53'2 2.0
2015-Jun-21 17:27S 36°53' E 174°54'0 0.0
2015-Jun-21 05:05S 36°53' E 174°54'0 0.0
2015-Jun-21 04:29S 36°53' E 174°54'0 0.0
2015-Jun-21 03:26S 36°53' E 174°54'0 0.0
2015-Jun-21 02:29S 36°53' E 174°54'0 0.0
2015-Jun-21 01:29S 36°53' E 174°54'0 0.0
2015-Jun-21 00:23S 36°53' E 174°54'0 0.0
2015-Jun-20 23:29S 36°53' E 174°54'0 0.0
2015-Jun-20 22:29S 36°53' E 174°54'0 0.0
2015-Jun-20 21:29S 36°53' E 174°54'0 0.0
2015-Jun-20 20:32S 36°53' E 174°54'0 0.0
2015-Jun-20 19:06S 36°53' E 174°54'0 0.0
2015-Jun-20 18:24S 36°53' E 174°54'  

Dump ship's entire track history